sensor_id;sensor_type;location;lat;lon;timestamp;pressure;altitude;pressure_sealevel;temperature;humidity
75219;BME280;63801;49.414;19.474;2024-02-21T00:01:56;94405.63;;;2.75;85.54
75219;BME280;63801;49.414;19.474;2024-02-21T00:03:57;94406.75;;;2.74;85.71
75219;BME280;63801;49.414;19.474;2024-02-21T00:05:57;94404.63;;;2.71;86.08
75219;BME280;63801;49.414;19.474;2024-02-21T00:07:59;94402.53;;;2.68;86.07
75219;BME280;63801;49.414;19.474;2024-02-21T00:09:59;94403.13;;;2.65;86.19
75219;BME280;63801;49.414;19.474;2024-02-21T00:12:00;94401.53;;;2.64;86.11
75219;BME280;63801;49.414;19.474;2024-02-21T00:14:01;94402.31;;;2.64;86.16
75219;BME280;63801;49.414;19.474;2024-02-21T00:16:01;94400.44;;;2.65;86.19
75219;BME280;63801;49.414;19.474;2024-02-21T00:18:02;94396.69;;;2.66;86.00
75219;BME280;63801;49.414;19.474;2024-02-21T00:20:02;94401.25;;;2.65;86.07
75219;BME280;63801;49.414;19.474;2024-02-21T00:22:03;94398.28;;;2.67;86.06
75219;BME280;63801;49.414;19.474;2024-02-21T00:24:04;94403.59;;;2.67;86.18
75219;BME280;63801;49.414;19.474;2024-02-21T00:26:04;94410.53;;;2.68;86.16
75219;BME280;63801;49.414;19.474;2024-02-21T00:28:05;94408.66;;;2.68;85.88
75219;BME280;63801;49.414;19.474;2024-02-21T00:30:06;94404.13;;;2.69;85.99
75219;BME280;63801;49.414;19.474;2024-02-21T00:32:07;94407.59;;;2.69;85.85
75219;BME280;63801;49.414;19.474;2024-02-21T00:34:07;94401.16;;;2.70;85.56
75219;BME280;63801;49.414;19.474;2024-02-21T00:36:07;94396.63;;;2.71;85.98
75219;BME280;63801;49.414;19.474;2024-02-21T00:38:08;94398.75;;;2.74;85.72
75219;BME280;63801;49.414;19.474;2024-02-21T00:40:08;94393.44;;;2.74;85.68
75219;BME280;63801;49.414;19.474;2024-02-21T00:42:09;94389.66;;;2.75;85.58
75219;BME280;63801;49.414;19.474;2024-02-21T00:44:09;94378.53;;;2.73;85.89
75219;BME280;63801;49.414;19.474;2024-02-21T00:46:10;94389.44;;;2.71;85.76
75219;BME280;63801;49.414;19.474;2024-02-21T00:48:11;94380.97;;;2.69;85.67
75219;BME280;63801;49.414;19.474;2024-02-21T00:50:11;94381.47;;;2.71;85.70
75219;BME280;63801;49.414;19.474;2024-02-21T00:52:11;94391.53;;;2.75;85.66
75219;BME280;63801;49.414;19.474;2024-02-21T00:54:12;94390.19;;;2.77;86.00
75219;BME280;63801;49.414;19.474;2024-02-21T00:56:12;94384.06;;;2.77;85.79
75219;BME280;63801;49.414;19.474;2024-02-21T00:58:12;94385.50;;;2.69;85.86
75219;BME280;63801;49.414;19.474;2024-02-21T01:00:13;94397.97;;;2.74;85.70
75219;BME280;63801;49.414;19.474;2024-02-21T01:02:13;94390.81;;;2.69;85.89
75219;BME280;63801;49.414;19.474;2024-02-21T01:04:14;94387.13;;;2.65;86.02
75219;BME280;63801;49.414;19.474;2024-02-21T01:06:14;94390.88;;;2.64;85.93
75219;BME280;63801;49.414;19.474;2024-02-21T01:08:15;94387.41;;;2.63;86.01
75219;BME280;63801;49.414;19.474;2024-02-21T01:10:15;94381.28;;;2.63;85.93
75219;BME280;63801;49.414;19.474;2024-02-21T01:12:17;94388.69;;;2.66;86.23
75219;BME280;63801;49.414;19.474;2024-02-21T01:14:17;94389.00;;;2.64;86.10
75219;BME280;63801;49.414;19.474;2024-02-21T01:16:18;94378.38;;;2.64;85.96
75219;BME280;63801;49.414;19.474;2024-02-21T01:18:18;94378.84;;;2.66;85.99
75219;BME280;63801;49.414;19.474;2024-02-21T01:20:18;94377.00;;;2.67;85.95
75219;BME280;63801;49.414;19.474;2024-02-21T01:22:19;94369.59;;;2.64;85.95
75219;BME280;63801;49.414;19.474;2024-02-21T01:24:19;94376.78;;;2.63;85.84
75219;BME280;63801;49.414;19.474;2024-02-21T01:26:19;94368.00;;;2.63;85.95
75219;BME280;63801;49.414;19.474;2024-02-21T01:28:19;94362.19;;;2.61;85.82
75219;BME280;63801;49.414;19.474;2024-02-21T01:30:20;94366.19;;;2.58;86.02
75219;BME280;63801;49.414;19.474;2024-02-21T01:32:21;94360.41;;;2.51;85.86
75219;BME280;63801;49.414;19.474;2024-02-21T01:34:22;94361.25;;;2.47;85.95
75219;BME280;63801;49.414;19.474;2024-02-21T01:36:22;94358.88;;;2.45;85.63
75219;BME280;63801;49.414;19.474;2024-02-21T01:38:23;94362.09;;;2.42;85.61
75219;BME280;63801;49.414;19.474;2024-02-21T01:40:23;94355.75;;;2.38;85.49
75219;BME280;63801;49.414;19.474;2024-02-21T01:42:24;94361.13;;;2.33;85.33
75219;BME280;63801;49.414;19.474;2024-02-21T01:44:24;94363.84;;;2.28;85.41
75219;BME280;63801;49.414;19.474;2024-02-21T01:46:25;94356.69;;;2.23;85.54
75219;BME280;63801;49.414;19.474;2024-02-21T01:48:30;94367.91;;;2.20;85.76
75219;BME280;63801;49.414;19.474;2024-02-21T01:50:31;94357.28;;;2.20;85.74
75219;BME280;63801;49.414;19.474;2024-02-21T01:52:31;94351.78;;;2.12;85.82
75219;BME280;63801;49.414;19.474;2024-02-21T01:54:33;94367.34;;;2.23;85.82
75219;BME280;63801;49.414;19.474;2024-02-21T01:56:34;94367.56;;;2.27;85.81
75219;BME280;63801;49.414;19.474;2024-02-21T01:58:36;94364.63;;;2.29;86.10
75219;BME280;63801;49.414;19.474;2024-02-21T02:00:38;94364.59;;;2.34;85.82
75219;BME280;63801;49.414;19.474;2024-02-21T02:02:41;94361.34;;;2.37;86.01
75219;BME280;63801;49.414;19.474;2024-02-21T02:04:42;94362.94;;;2.38;86.00
75219;BME280;63801;49.414;19.474;2024-02-21T02:06:43;94345.22;;;2.28;85.87
75219;BME280;63801;49.414;19.474;2024-02-21T02:08:43;94358.47;;;2.33;86.06
75219;BME280;63801;49.414;19.474;2024-02-21T02:10:44;94361.13;;;2.33;86.16
75219;BME280;63801;49.414;19.474;2024-02-21T02:12:44;94360.91;;;2.30;86.04
75219;BME280;63801;49.414;19.474;2024-02-21T02:14:45;94352.41;;;2.28;86.01
75219;BME280;63801;49.414;19.474;2024-02-21T02:16:48;94350.59;;;2.23;85.79
75219;BME280;63801;49.414;19.474;2024-02-21T02:18:48;94350.94;;;2.16;85.83
75219;BME280;63801;49.414;19.474;2024-02-21T02:20:49;94337.69;;;2.11;85.90
75219;BME280;63801;49.414;19.474;2024-02-21T02:22:49;94333.47;;;2.05;85.83
75219;BME280;63801;49.414;19.474;2024-02-21T02:24:50;94331.19;;;1.94;86.48
75219;BME280;63801;49.414;19.474;2024-02-21T02:26:51;94329.88;;;1.91;86.18
75219;BME280;63801;49.414;19.474;2024-02-21T02:28:51;94323.03;;;1.85;86.00
75219;BME280;63801;49.414;19.474;2024-02-21T02:30:52;94324.16;;;1.79;86.15
75219;BME280;63801;49.414;19.474;2024-02-21T02:32:52;94331.63;;;1.77;86.11
75219;BME280;63801;49.414;19.474;2024-02-21T02:34:53;94330.03;;;1.76;86.14
75219;BME280;63801;49.414;19.474;2024-02-21T02:36:53;94334.28;;;1.77;86.11
75219;BME280;63801;49.414;19.474;2024-02-21T02:38:54;94341.94;;;1.78;86.18
75219;BME280;63801;49.414;19.474;2024-02-21T02:40:55;94341.69;;;1.80;86.20
75219;BME280;63801;49.414;19.474;2024-02-21T02:42:56;94333.66;;;1.85;86.34
75219;BME280;63801;49.414;19.474;2024-02-21T02:44:56;94325.94;;;1.89;86.27
75219;BME280;63801;49.414;19.474;2024-02-21T02:46:57;94326.16;;;1.92;86.19
75219;BME280;63801;49.414;19.474;2024-02-21T02:48:57;94319.50;;;1.95;86.02
75219;BME280;63801;49.414;19.474;2024-02-21T02:50:58;94313.38;;;1.94;86.19
75219;BME280;63801;49.414;19.474;2024-02-21T02:52:58;94316.03;;;1.94;85.89
75219;BME280;63801;49.414;19.474;2024-02-21T02:54:58;94325.09;;;1.93;85.86
75219;BME280;63801;49.414;19.474;2024-02-21T02:56:59;94322.47;;;1.88;85.62
75219;BME280;63801;49.414;19.474;2024-02-21T02:58:59;94310.34;;;1.77;85.73
75219;BME280;63801;49.414;19.474;2024-02-21T03:00:59;94314.03;;;1.81;85.76
75219;BME280;63801;49.414;19.474;2024-02-21T03:03:00;94317.22;;;1.78;85.87
75219;BME280;63801;49.414;19.474;2024-02-21T03:05:00;94307.97;;;1.75;86.04
75219;BME280;63801;49.414;19.474;2024-02-21T03:07:00;94306.94;;;1.71;85.98
75219;BME280;63801;49.414;19.474;2024-02-21T03:09:01;94306.72;;;1.68;85.94
75219;BME280;63801;49.414;19.474;2024-02-21T03:11:01;94308.03;;;1.65;85.80
75219;BME280;63801;49.414;19.474;2024-02-21T03:13:01;94305.66;;;1.64;85.86
75219;BME280;63801;49.414;19.474;2024-02-21T03:15:03;94318.19;;;1.63;86.08
75219;BME280;63801;49.414;19.474;2024-02-21T03:17:03;94309.63;;;1.66;86.23
75219;BME280;63801;49.414;19.474;2024-02-21T03:19:05;94311.47;;;1.71;86.54
75219;BME280;63801;49.414;19.474;2024-02-21T03:21:05;94307.97;;;1.75;86.60
75219;BME280;63801;49.414;19.474;2024-02-21T03:23:05;94305.53;;;1.79;86.62
75219;BME280;63801;49.414;19.474;2024-02-21T03:25:06;94304.47;;;1.80;86.50
75219;BME280;63801;49.414;19.474;2024-02-21T03:27:07;94310.81;;;1.84;86.44
75219;BME280;63801;49.414;19.474;2024-02-21T03:29:08;94301.25;;;1.83;86.37
75219;BME280;63801;49.414;19.474;2024-02-21T03:31:12;94299.72;;;1.77;86.70
75219;BME280;63801;49.414;19.474;2024-02-21T03:33:13;94310.34;;;1.77;86.74
75219;BME280;63801;49.414;19.474;2024-02-21T03:35:14;94307.75;;;1.72;86.79
75219;BME280;63801;49.414;19.474;2024-02-21T03:37:14;94309.88;;;1.70;86.59
75219;BME280;63801;49.414;19.474;2024-02-21T03:39:15;94315.75;;;1.67;86.68
75219;BME280;63801;49.414;19.474;2024-02-21T03:41:15;94319.47;;;1.66;86.36
75219;BME280;63801;49.414;19.474;2024-02-21T03:43:15;94313.38;;;1.65;86.80
75219;BME280;63801;49.414;19.474;2024-02-21T03:45:16;94321.06;;;1.67;86.54
75219;BME280;63801;49.414;19.474;2024-02-21T03:47:16;94320.78;;;1.68;86.64
75219;BME280;63801;49.414;19.474;2024-02-21T03:49:16;94324.47;;;1.72;86.77
75219;BME280;63801;49.414;19.474;2024-02-21T03:51:18;94325.50;;;1.76;86.70
75219;BME280;63801;49.414;19.474;2024-02-21T03:53:18;94322.00;;;1.81;86.63
75219;BME280;63801;49.414;19.474;2024-02-21T03:55:18;94318.53;;;1.86;86.76
75219;BME280;63801;49.414;19.474;2024-02-21T03:57:19;94324.84;;;1.90;86.58
75219;BME280;63801;49.414;19.474;2024-02-21T03:59:19;94321.34;;;1.94;86.67
75219;BME280;63801;49.414;19.474;2024-02-21T04:01:20;94319.19;;;1.96;86.56
75219;BME280;63801;49.414;19.474;2024-02-21T04:03:20;94323.19;;;1.99;86.46
75219;BME280;63801;49.414;19.474;2024-02-21T04:05:20;94326.09;;;1.97;86.78
75219;BME280;63801;49.414;19.474;2024-02-21T04:07:21;94324.50;;;1.96;86.82
75219;BME280;63801;49.414;19.474;2024-02-21T04:09:21;94321.34;;;1.94;86.81
75219;BME280;63801;49.414;19.474;2024-02-21T04:11:22;94317.69;;;1.90;86.95
75219;BME280;63801;49.414;19.474;2024-02-21T04:13:22;94298.38;;;1.79;86.94
75219;BME280;63801;49.414;19.474;2024-02-21T04:15:23;94315.88;;;1.86;87.08
75219;BME280;63801;49.414;19.474;2024-02-21T04:17:23;94308.41;;;1.83;87.26
75219;BME280;63801;49.414;19.474;2024-02-21T04:19:23;94303.09;;;1.83;87.09
75219;BME280;63801;49.414;19.474;2024-02-21T04:21:23;94304.16;;;1.81;87.05
75219;BME280;63801;49.414;19.474;2024-02-21T04:23:24;94296.78;;;1.78;87.28
75219;BME280;63801;49.414;19.474;2024-02-21T04:25:25;94291.75;;;1.77;87.23
75219;BME280;63801;49.414;19.474;2024-02-21T04:27:26;94280.59;;;1.75;87.27
75219;BME280;63801;49.414;19.474;2024-02-21T04:29:27;94291.94;;;1.86;87.10
75219;BME280;63801;49.414;19.474;2024-02-21T04:31:28;94297.75;;;1.88;87.35
75219;BME280;63801;49.414;19.474;2024-02-21T04:33:28;94294.59;;;1.86;87.35
75219;BME280;63801;49.414;19.474;2024-02-21T04:35:28;94293.81;;;1.85;87.13
75219;BME280;63801;49.414;19.474;2024-02-21T04:37:29;94289.56;;;1.84;87.17
75219;BME280;63801;49.414;19.474;2024-02-21T04:39:29;94293.81;;;1.85;87.17
75219;BME280;63801;49.414;19.474;2024-02-21T04:41:29;94291.63;;;1.87;87.32
75219;BME280;63801;49.414;19.474;2024-02-21T04:43:30;94282.06;;;1.86;87.16
75219;BME280;63801;49.414;19.474;2024-02-21T04:45:30;94287.13;;;1.88;87.43
75219;BME280;63801;49.414;19.474;2024-02-21T04:47:30;94283.66;;;1.87;87.20
75219;BME280;63801;49.414;19.474;2024-02-21T04:49:31;94285.03;;;1.85;87.37
75219;BME280;63801;49.414;19.474;2024-02-21T04:51:31;94288.75;;;1.84;87.26
75219;BME280;63801;49.414;19.474;2024-02-21T04:53:32;94283.22;;;1.80;86.84
75219;BME280;63801;49.414;19.474;2024-02-21T04:55:32;94288.53;;;1.80;86.99
75219;BME280;63801;49.414;19.474;2024-02-21T04:57:32;94280.03;;;1.78;86.94
75219;BME280;63801;49.414;19.474;2024-02-21T04:59:33;94289.09;;;1.77;86.72
75219;BME280;63801;49.414;19.474;2024-02-21T05:01:35;94292.03;;;1.75;86.80
75219;BME280;63801;49.414;19.474;2024-02-21T05:03:35;94294.94;;;1.74;86.71
75219;BME280;63801;49.414;19.474;2024-02-21T05:05:35;94294.16;;;1.73;86.64
75219;BME280;63801;49.414;19.474;2024-02-21T05:07:36;94293.34;;;1.73;86.47
75219;BME280;63801;49.414;19.474;2024-02-21T05:09:36;94292.84;;;1.71;86.41
75219;BME280;63801;49.414;19.474;2024-02-21T05:11:36;94285.47;;;1.68;86.45
75219;BME280;63801;49.414;19.474;2024-02-21T05:13:37;94289.97;;;1.67;86.59
75219;BME280;63801;49.414;19.474;2024-02-21T05:15:38;94290.50;;;1.64;86.37
75219;BME280;63801;49.414;19.474;2024-02-21T05:17:38;94289.72;;;1.64;86.78
75219;BME280;63801;49.414;19.474;2024-02-21T05:19:38;94293.47;;;1.63;86.84
75219;BME280;63801;49.414;19.474;2024-02-21T05:21:39;94290.28;;;1.61;87.33
75219;BME280;63801;49.414;19.474;2024-02-21T05:23:39;94292.66;;;1.62;87.42
75219;BME280;63801;49.414;19.474;2024-02-21T05:25:39;94290.81;;;1.63;87.53
75219;BME280;63801;49.414;19.474;2024-02-21T05:27:40;94288.94;;;1.63;87.96
75219;BME280;63801;49.414;19.474;2024-02-21T05:29:40;94290.81;;;1.63;87.72
75219;BME280;63801;49.414;19.474;2024-02-21T05:33:53;94289.44;;;1.65;87.87
75219;BME280;63801;49.414;19.474;2024-02-21T05:35:53;94293.16;;;1.64;88.13
75219;BME280;63801;49.414;19.474;2024-02-21T05:37:53;94290.25;;;1.66;88.36
75219;BME280;63801;49.414;19.474;2024-02-21T05:39:54;94281.25;;;1.62;88.27
75219;BME280;63801;49.414;19.474;2024-02-21T05:41:54;94289.69;;;1.69;88.34
75219;BME280;63801;49.414;19.474;2024-02-21T05:43:55;94294.44;;;1.72;88.34
75219;BME280;63801;49.414;19.474;2024-02-21T05:45:55;94283.25;;;1.75;88.03
75219;BME280;63801;49.414;19.474;2024-02-21T05:47:55;94288.53;;;1.80;88.59
75219;BME280;63801;49.414;19.474;2024-02-21T05:49:57;94286.00;;;1.94;89.11
75219;BME280;63801;49.414;19.474;2024-02-21T05:51:57;94289.59;;;2.08;88.95
75219;BME280;63801;49.414;19.474;2024-02-21T05:53:57;94289.25;;;2.14;88.41
75219;BME280;63801;49.414;19.474;2024-02-21T05:55:58;94281.25;;;2.14;88.15
75219;BME280;63801;49.414;19.474;2024-02-21T05:57:58;94280.78;;;2.12;88.06
75219;BME280;63801;49.414;19.474;2024-02-21T05:59:58;94292.47;;;2.11;87.81
75219;BME280;63801;49.414;19.474;2024-02-21T06:02:00;94290.59;;;2.12;87.72
75219;BME280;63801;49.414;19.474;2024-02-21T06:04:03;94279.19;;;2.11;87.84
75219;BME280;63801;49.414;19.474;2024-02-21T06:06:05;94285.28;;;2.12;87.71
75219;BME280;63801;49.414;19.474;2024-02-21T06:08:05;94284.50;;;2.11;87.93
75219;BME280;63801;49.414;19.474;2024-02-21T06:10:07;94287.44;;;2.10;87.89
75219;BME280;63801;49.414;19.474;2024-02-21T06:12:07;94279.44;;;2.10;88.25
75219;BME280;63801;49.414;19.474;2024-02-21T06:14:07;94277.84;;;2.09;88.21
75219;BME280;63801;49.414;19.474;2024-02-21T06:16:08;94278.16;;;2.07;88.10
75219;BME280;63801;49.414;19.474;2024-02-21T06:18:08;94278.69;;;2.04;88.08
75219;BME280;63801;49.414;19.474;2024-02-21T06:20:08;94278.22;;;2.02;87.92
75219;BME280;63801;49.414;19.474;2024-02-21T06:22:09;94286.97;;;2.03;87.51
75219;BME280;63801;49.414;19.474;2024-02-21T06:24:09;94277.13;;;2.03;87.58
75219;BME280;63801;49.414;19.474;2024-02-21T06:26:10;94293.59;;;2.05;87.71
75219;BME280;63801;49.414;19.474;2024-02-21T06:28:10;94292.47;;;2.11;88.13
75219;BME280;63801;49.414;19.474;2024-02-21T06:30:11;94289.78;;;2.59;90.23
75219;BME280;63801;49.414;19.474;2024-02-21T06:32:11;94284.53;;;2.96;89.43
75219;BME280;63801;49.414;19.474;2024-02-21T06:34:11;94288.63;;;3.07;88.25
75219;BME280;63801;49.414;19.474;2024-02-21T06:36:12;94280.63;;;3.07;87.64
75219;BME280;63801;49.414;19.474;2024-02-21T06:38:12;94273.59;;;3.16;88.30
75219;BME280;63801;49.414;19.474;2024-02-21T06:40:12;94277.66;;;3.46;88.41
75219;BME280;63801;49.414;19.474;2024-02-21T06:42:13;94277.34;;;3.67;88.03
75219;BME280;63801;49.414;19.474;2024-02-21T06:44:13;94273.03;;;3.84;87.80
75219;BME280;63801;49.414;19.474;2024-02-21T06:46:26;94276.72;;;4.02;87.89
75219;BME280;63801;49.414;19.474;2024-02-21T06:48:27;94278.53;;;4.20;88.02
75219;BME280;63801;49.414;19.474;2024-02-21T06:50:27;94284.97;;;4.60;88.67
75219;BME280;63801;49.414;19.474;2024-02-21T06:52:27;94279.00;;;4.90;86.94
75219;BME280;63801;49.414;19.474;2024-02-21T06:54:28;94287.47;;;5.06;86.76
75219;BME280;63801;49.414;19.474;2024-02-21T06:56:28;94287.66;;;5.46;87.77
75219;BME280;63801;49.414;19.474;2024-02-21T06:58:28;94297.75;;;6.15;85.72
75219;BME280;63801;49.414;19.474;2024-02-21T07:00:29;94288.41;;;6.74;84.58
75219;BME280;63801;49.414;19.474;2024-02-21T07:02:29;94286.03;;;7.38;83.76
75219;BME280;63801;49.414;19.474;2024-02-21T07:04:30;94279.38;;;7.96;81.63
75219;BME280;63801;49.414;19.474;2024-02-21T07:06:30;94280.84;;;8.48;80.22
75219;BME280;63801;49.414;19.474;2024-02-21T07:08:31;94283.59;;;9.07;80.21
75219;BME280;63801;49.414;19.474;2024-02-21T07:10:31;94281.84;;;9.73;79.93
75219;BME280;63801;49.414;19.474;2024-02-21T07:12:32;94275.69;;;10.26;77.18
75219;BME280;63801;49.414;19.474;2024-02-21T07:14:32;94278.44;;;10.63;77.00
75219;BME280;63801;49.414;19.474;2024-02-21T07:16:33;94284.44;;;10.93;74.59
75219;BME280;63801;49.414;19.474;2024-02-21T07:18:33;94285.31;;;11.09;70.80
75219;BME280;63801;49.414;19.474;2024-02-21T07:20:34;94279.91;;;11.33;71.05
75219;BME280;63801;49.414;19.474;2024-02-21T07:22:36;94279.00;;;11.41;70.27
75219;BME280;63801;49.414;19.474;2024-02-21T07:24:37;94278.84;;;11.62;68.89
75219;BME280;63801;49.414;19.474;2024-02-21T07:26:41;94268.50;;;11.76;66.68
75219;BME280;63801;49.414;19.474;2024-02-21T07:28:42;94280.19;;;11.68;65.28
75219;BME280;63801;49.414;19.474;2024-02-21T07:30:42;94272.31;;;11.75;64.35
75219;BME280;63801;49.414;19.474;2024-02-21T07:32:43;94275.47;;;11.77;63.11
75219;BME280;63801;49.414;19.474;2024-02-21T07:34:43;94274.31;;;11.90;63.23
75219;BME280;63801;49.414;19.474;2024-02-21T07:36:43;94273.75;;;12.12;63.29
75219;BME280;63801;49.414;19.474;2024-02-21T07:38:44;94263.31;;;12.27;61.84
75219;BME280;63801;49.414;19.474;2024-02-21T07:40:45;94258.59;;;12.24;60.05
75219;BME280;63801;49.414;19.474;2024-02-21T07:42:45;94256.16;;;11.91;59.41
75219;BME280;63801;49.414;19.474;2024-02-21T07:44:46;94257.06;;;11.95;59.82
75219;BME280;63801;49.414;19.474;2024-02-21T07:46:46;94255.34;;;12.18;59.21
75219;BME280;63801;49.414;19.474;2024-02-21T07:48:46;94251.84;;;12.45;58.91
75219;BME280;63801;49.414;19.474;2024-02-21T07:50:47;94255.00;;;12.63;58.71
75219;BME280;63801;49.414;19.474;2024-02-21T07:52:47;94255.44;;;12.96;59.25
75219;BME280;63801;49.414;19.474;2024-02-21T07:54:48;94245.50;;;13.51;60.29
75219;BME280;63801;49.414;19.474;2024-02-21T07:56:48;94245.22;;;14.14;59.92
75219;BME280;63801;49.414;19.474;2024-02-21T07:58:48;94243.00;;;14.80;59.89
75219;BME280;63801;49.414;19.474;2024-02-21T08:00:49;94259.56;;;14.98;56.26
75219;BME280;63801;49.414;19.474;2024-02-21T08:02:49;94245.09;;;14.45;53.37
75219;BME280;63801;49.414;19.474;2024-02-21T08:04:51;94246.53;;;14.01;53.56
75219;BME280;63801;49.414;19.474;2024-02-21T08:06:52;94244.75;;;13.35;53.35
75219;BME280;63801;49.414;19.474;2024-02-21T08:08:53;94244.25;;;12.51;53.81
75219;BME280;63801;49.414;19.474;2024-02-21T08:10:53;94240.09;;;11.70;54.67
75219;BME280;63801;49.414;19.474;2024-02-21T08:12:54;94237.56;;;10.97;55.47
75219;BME280;63801;49.414;19.474;2024-02-21T08:14:54;94245.06;;;10.67;56.57
75219;BME280;63801;49.414;19.474;2024-02-21T08:16:54;94242.69;;;10.42;57.35
75219;BME280;63801;49.414;19.474;2024-02-21T08:18:55;94248.94;;;10.21;57.81
75219;BME280;63801;49.414;19.474;2024-02-21T08:20:56;94244.91;;;9.95;57.79
75219;BME280;63801;49.414;19.474;2024-02-21T08:22:56;94242.22;;;9.95;59.19
75219;BME280;63801;49.414;19.474;2024-02-21T08:24:56;94248.53;;;10.11;59.29
75219;BME280;63801;49.414;19.474;2024-02-21T08:26:57;94237.09;;;10.14;59.33
75219;BME280;63801;49.414;19.474;2024-02-21T08:28:57;94235.41;;;10.09;59.46
75219;BME280;63801;49.414;19.474;2024-02-21T08:31:00;94241.19;;;10.20;59.73
75219;BME280;63801;49.414;19.474;2024-02-21T08:33:01;94225.72;;;10.29;59.25
75219;BME280;63801;49.414;19.474;2024-02-21T08:35:01;94226.59;;;10.21;58.70
75219;BME280;63801;49.414;19.474;2024-02-21T08:37:01;94235.09;;;9.78;58.53
75219;BME280;63801;49.414;19.474;2024-02-21T08:39:03;94227.22;;;9.31;58.88
75219;BME280;63801;49.414;19.474;2024-02-21T08:41:04;94238.22;;;8.97;59.32
75219;BME280;63801;49.414;19.474;2024-02-21T08:43:05;94225.34;;;8.82;60.16
75219;BME280;63801;49.414;19.474;2024-02-21T08:45:05;94230.44;;;8.75;60.70
75219;BME280;63801;49.414;19.474;2024-02-21T08:47:06;94220.72;;;8.62;61.30
75219;BME280;63801;49.414;19.474;2024-02-21T08:49:10;94233.69;;;8.60;61.21
75219;BME280;63801;49.414;19.474;2024-02-21T08:51:10;94229.69;;;8.36;61.14
75219;BME280;63801;49.414;19.474;2024-02-21T08:53:11;94232.91;;;8.04;61.73
75219;BME280;63801;49.414;19.474;2024-02-21T08:55:13;94227.44;;;7.75;62.21
75219;BME280;63801;49.414;19.474;2024-02-21T08:57:13;94225.44;;;7.46;62.67
75219;BME280;63801;49.414;19.474;2024-02-21T08:59:14;94226.03;;;7.17;63.97
75219;BME280;63801;49.414;19.474;2024-02-21T09:01:15;94228.09;;;6.94;64.32
75219;BME280;63801;49.414;19.474;2024-02-21T09:03:15;94225.53;;;6.72;64.93
75219;BME280;63801;49.414;19.474;2024-02-21T09:05:17;94234.63;;;6.54;65.85
75219;BME280;63801;49.414;19.474;2024-02-21T09:07:18;94237.56;;;6.44;66.51
75219;BME280;63801;49.414;19.474;2024-02-21T09:09:19;94241.81;;;6.36;66.94
75219;BME280;63801;49.414;19.474;2024-02-21T09:11:20;94238.16;;;6.32;67.28
75219;BME280;63801;49.414;19.474;2024-02-21T09:13:20;94243.16;;;6.25;68.32
75219;BME280;63801;49.414;19.474;2024-02-21T09:15:20;94231.16;;;6.14;68.78
75219;BME280;63801;49.414;19.474;2024-02-21T09:17:21;94247.22;;;6.14;69.08
75219;BME280;63801;49.414;19.474;2024-02-21T09:19:21;94256.16;;;6.09;69.08
75219;BME280;63801;49.414;19.474;2024-02-21T09:21:21;94245.09;;;6.02;69.35
75219;BME280;63801;49.414;19.474;2024-02-21T09:23:24;94234.84;;;5.96;69.32
75219;BME280;63801;49.414;19.474;2024-02-21T09:25:24;94239.44;;;5.81;70.26
75219;BME280;63801;49.414;19.474;2024-02-21T09:27:25;94238.50;;;5.77;70.34
75219;BME280;63801;49.414;19.474;2024-02-21T09:29:25;94239.69;;;5.71;70.42
75219;BME280;63801;49.414;19.474;2024-02-21T09:31:26;94232.28;;;5.68;70.72
75219;BME280;63801;49.414;19.474;2024-02-21T09:33:26;94228.03;;;5.67;70.46
75219;BME280;63801;49.414;19.474;2024-02-21T09:35:26;94233.81;;;5.61;70.99
75219;BME280;63801;49.414;19.474;2024-02-21T09:37:27;94241.06;;;5.60;70.82
75219;BME280;63801;49.414;19.474;2024-02-21T09:39:28;94231.63;;;5.63;70.88
75219;BME280;63801;49.414;19.474;2024-02-21T09:41:28;94231.94;;;5.61;71.05
75219;BME280;63801;49.414;19.474;2024-02-21T09:43:29;94234.13;;;5.59;71.23
75219;BME280;63801;49.414;19.474;2024-02-21T09:45:31;94234.75;;;5.56;71.44
75219;BME280;63801;49.414;19.474;2024-02-21T09:47:43;94235.22;;;5.58;71.72
75219;BME280;63801;49.414;19.474;2024-02-21T09:49:48;94227.19;;;5.58;71.49
75219;BME280;63801;49.414;19.474;2024-02-21T09:51:49;94236.78;;;5.59;71.88
75219;BME280;63801;49.414;19.474;2024-02-21T09:53:51;94234.28;;;5.63;71.76
75219;BME280;63801;49.414;19.474;2024-02-21T09:55:53;94238.13;;;5.70;71.95
75219;BME280;63801;49.414;19.474;2024-02-21T09:57:53;94235.31;;;5.75;71.59
75219;BME280;63801;49.414;19.474;2024-02-21T09:59:55;94238.50;;;5.77;71.92
75219;BME280;63801;49.414;19.474;2024-02-21T10:01:56;94245.44;;;5.78;72.16
75219;BME280;63801;49.414;19.474;2024-02-21T10:03:57;94235.50;;;5.79;72.43
75219;BME280;63801;49.414;19.474;2024-02-21T10:05:59;94244.47;;;5.74;72.75
75219;BME280;63801;49.414;19.474;2024-02-21T10:08:01;94218.44;;;5.66;72.72
75219;BME280;63801;49.414;19.474;2024-02-21T10:10:05;94240.19;;;5.73;73.29
75219;BME280;63801;49.414;19.474;2024-02-21T10:12:09;94231.69;;;5.71;73.33
75219;BME280;63801;49.414;19.474;2024-02-21T10:14:10;94227.19;;;5.58;73.28
75219;BME280;63801;49.414;19.474;2024-02-21T10:16:11;94235.28;;;5.44;73.79
75219;BME280;63801;49.414;19.474;2024-02-21T10:18:11;94218.41;;;5.35;73.97
75219;BME280;63801;49.414;19.474;2024-02-21T10:20:11;94221.00;;;5.27;74.34
75219;BME280;63801;49.414;19.474;2024-02-21T10:22:12;94213.22;;;5.17;74.91
75219;BME280;63801;49.414;19.474;2024-02-21T10:24:15;94217.59;;;5.13;75.04
75219;BME280;63801;49.414;19.474;2024-02-21T10:26:26;94211.47;;;5.12;75.34
75219;BME280;63801;49.414;19.474;2024-02-21T10:28:26;94212.53;;;5.11;75.56
75219;BME280;63801;49.414;19.474;2024-02-21T10:30:26;94216.00;;;5.12;75.74
75219;BME280;63801;49.414;19.474;2024-02-21T10:32:26;94205.78;;;5.14;75.90
75219;BME280;63801;49.414;19.474;2024-02-21T10:34:28;94208.00;;;5.12;75.98
75219;BME280;63801;49.414;19.474;2024-02-21T10:36:29;94195.47;;;4.98;76.19
75219;BME280;63801;49.414;19.474;2024-02-21T10:38:29;94202.16;;;5.10;76.17
75219;BME280;63801;49.414;19.474;2024-02-21T10:40:30;94189.28;;;5.12;76.08
75219;BME280;63801;49.414;19.474;2024-02-21T10:42:34;94190.09;;;5.12;76.52